Barnesboro, PA

4:15 PM EDT on March 29, 2015 (GMT -0400)
Never-Enuff - 9th St | | Change Station
CLOSE
Current Station
Personal Weather Station
Location: Colver, PA
Elevation: 2256 ft
Nearby Weather Stations

Elev 2256 ft 40.54 °N, 78.78 °W | Updated 1 minute ago

Clear
Clear
46.2 °F
Feels Like 45 °F
N
3.5
Wind Variable Wind from WSW
Gusts 6.9 mph

Today
High -- | Low -- °F
--% Chance of Precip.
Yesterday
High -- | Low -- °F
Precip. -- in
7:04 AM 7:36 PM
Waxing Gibbous, 74% visible
Pressure 30.21 in
Visibility 10.0 miles
Clouds Clear
Windchill 45 °F
Dew Point 28 °F
Humidity 50%
Rainfall 0.00 in
Snow Depth Not available.
UV 5 out of 12
Pollen 6.20 out of 12
Air Quality Not available.
Flu Activity Not available.
METAR KIDI 291955Z AUTO 26008KT 10SM CLR 05/M11 A3021 RMK A01

More Conditions Fewer Conditions

Pressure 30.21 in
Visibility 10.0 miles
Clouds Clear
Windchill 45 °F
Dew Point 28 °F
Humidity 50%
Rainfall 0.00 in
Snow Depth Not available.
UV 5 out of 12
Pollen 6.20 out of 12
Air Quality Not available.
Flu Activity Not available.
METAR KIDI 291955Z AUTO 26008KT 10SM CLR 05/M11 A3021 RMK A01

More Conditions Fewer Conditions

10-Day Weather Forecast

Almanac

Astronomy

Mar. 29, 2015 Rise Set
Actual Time
Civil Twilight
Nautical Twilight
Astronomical Twilight
Moon
Length of Visible Light
Length of Day
Tomorrow will be .
, % of the Moon is Illuminated

Today's Extremes

State Highs State Lows

Community

WunderPhotos

Upload Photos

1,809,341 photos uploaded!

WunderBlogs® & News

Nearby

Air Quality

  Air Quality AQ Index Pollutant
Not available.

Snow Depth

Station Depth Elevation

Earthquake Activity

City Distance Mag. Time & Date
Minimum magnitude displayed is 2.5.

Coastal Water Temperatures

Place Temperature

Stations

Nearby Weather Stations

Station Location Temp. Windchill Dew Point Humidity Wind Precip. Elev Updated Type